sensor_id;sensor_type;location;lat;lon;timestamp;P1;durP1;ratioP1;P2;durP2;ratioP2
23232;SDS011;11785;49.500;8.288;2022-11-21T00:00:29;4.20;;;1.50;;
23232;SDS011;11785;49.500;8.288;2022-11-21T00:02:59;7.53;;;1.40;;
23232;SDS011;11785;49.500;8.288;2022-11-21T00:05:26;8.18;;;1.63;;
23232;SDS011;11785;49.500;8.288;2022-11-21T00:07:53;7.03;;;1.55;;
23232;SDS011;11785;49.500;8.288;2022-11-21T00:10:19;4.28;;;1.40;;
23232;SDS011;11785;49.500;8.288;2022-11-21T00:12:44;7.72;;;1.40;;
23232;SDS011;11785;49.500;8.288;2022-11-21T00:15:10;6.63;;;1.52;;
23232;SDS011;11785;49.500;8.288;2022-11-21T00:17:36;6.20;;;1.50;;
23232;SDS011;11785;49.500;8.288;2022-11-21T00:20:01;7.75;;;1.25;;
23232;SDS011;11785;49.500;8.288;2022-11-21T00:22:27;4.38;;;1.17;;
23232;SDS011;11785;49.500;8.288;2022-11-21T00:24:52;7.22;;;1.83;;
23232;SDS011;11785;49.500;8.288;2022-11-21T00:27:18;7.40;;;1.75;;
23232;SDS011;11785;49.500;8.288;2022-11-21T00:29:43;4.05;;;1.50;;
23232;SDS011;11785;49.500;8.288;2022-11-21T00:32:09;6.40;;;1.20;;
23232;SDS011;11785;49.500;8.288;2022-11-21T00:34:34;2.53;;;1.17;;
23232;SDS011;11785;49.500;8.288;2022-11-21T00:37:00;6.82;;;1.20;;
23232;SDS011;11785;49.500;8.288;2022-11-21T00:39:26;2.90;;;1.20;;
23232;SDS011;11785;49.500;8.288;2022-11-21T00:41:51;7.32;;;1.70;;
23232;SDS011;11785;49.500;8.288;2022-11-21T00:44:17;4.60;;;1.50;;
23232;SDS011;11785;49.500;8.288;2022-11-21T00:46:42;3.10;;;1.15;;
23232;SDS011;11785;49.500;8.288;2022-11-21T00:49:08;6.72;;;1.17;;
23232;SDS011;11785;49.500;8.288;2022-11-21T00:51:33;4.43;;;1.25;;
23232;SDS011;11785;49.500;8.288;2022-11-21T00:53:59;4.53;;;1.40;;
23232;SDS011;11785;49.500;8.288;2022-11-21T00:56:24;5.63;;;1.25;;
23232;SDS011;11785;49.500;8.288;2022-11-21T00:58:50;5.55;;;1.35;;
23232;SDS011;11785;49.500;8.288;2022-11-21T01:01:15;7.03;;;2.28;;
23232;SDS011;11785;49.500;8.288;2022-11-21T01:03:41;3.72;;;1.17;;
23232;SDS011;11785;49.500;8.288;2022-11-21T01:06:08;13.63;;;1.50;;
23232;SDS011;11785;49.500;8.288;2022-11-21T01:08:36;8.25;;;1.80;;
23232;SDS011;11785;49.500;8.288;2022-11-21T01:11:03;6.10;;;1.05;;
23232;SDS011;11785;49.500;8.288;2022-11-21T01:13:30;6.35;;;1.77;;
23232;SDS011;11785;49.500;8.288;2022-11-21T01:16:01;8.88;;;1.58;;
23232;SDS011;11785;49.500;8.288;2022-11-21T01:18:29;4.13;;;1.40;;
23232;SDS011;11785;49.500;8.288;2022-11-21T01:20:58;7.57;;;1.42;;
23232;SDS011;11785;49.500;8.288;2022-11-21T01:23:27;5.60;;;1.37;;
23232;SDS011;11785;49.500;8.288;2022-11-21T01:25:53;12.57;;;1.75;;
23232;SDS011;11785;49.500;8.288;2022-11-21T01:28:19;9.32;;;1.85;;
23232;SDS011;11785;49.500;8.288;2022-11-21T01:30:44;5.47;;;1.38;;
23232;SDS011;11785;49.500;8.288;2022-11-21T01:33:10;6.38;;;1.63;;
23232;SDS011;11785;49.500;8.288;2022-11-21T01:35:36;8.50;;;1.40;;
23232;SDS011;11785;49.500;8.288;2022-11-21T01:38:01;7.32;;;1.80;;
23232;SDS011;11785;49.500;8.288;2022-11-21T01:40:27;5.00;;;1.65;;
23232;SDS011;11785;49.500;8.288;2022-11-21T01:42:53;5.97;;;1.40;;
23232;SDS011;11785;49.500;8.288;2022-11-21T01:48:16;6.88;;;1.50;;
23232;SDS011;11785;49.500;8.288;2022-11-21T01:50:41;7.95;;;1.50;;
23232;SDS011;11785;49.500;8.288;2022-11-21T01:53:07;5.95;;;1.30;;
23232;SDS011;11785;49.500;8.288;2022-11-21T01:55:33;5.80;;;1.40;;
23232;SDS011;11785;49.500;8.288;2022-11-21T01:57:59;8.60;;;1.48;;
23232;SDS011;11785;49.500;8.288;2022-11-21T02:00:26;5.95;;;1.50;;
23232;SDS011;11785;49.500;8.288;2022-11-21T02:02:59;2.53;;;1.07;;
23232;SDS011;11785;49.500;8.288;2022-11-21T02:05:31;6.90;;;1.40;;
23232;SDS011;11785;49.500;8.288;2022-11-21T02:08:06;2.35;;;1.10;;
23232;SDS011;11785;49.500;8.288;2022-11-21T02:10:37;3.55;;;1.35;;
23232;SDS011;11785;49.500;8.288;2022-11-21T02:13:09;3.80;;;1.10;;
23232;SDS011;11785;49.500;8.288;2022-11-21T02:15:35;5.25;;;1.30;;
23232;SDS011;11785;49.500;8.288;2022-11-21T02:18:01;7.70;;;1.70;;
23232;SDS011;11785;49.500;8.288;2022-11-21T02:20:27;4.75;;;1.45;;
23232;SDS011;11785;49.500;8.288;2022-11-21T02:22:57;5.35;;;1.20;;
23232;SDS011;11785;49.500;8.288;2022-11-21T02:25:29;3.08;;;1.45;;
23232;SDS011;11785;49.500;8.288;2022-11-21T02:27:58;7.22;;;1.92;;
23232;SDS011;11785;49.500;8.288;2022-11-21T02:30:27;8.95;;;1.58;;
23232;SDS011;11785;49.500;8.288;2022-11-21T02:32:54;5.30;;;1.88;;
23232;SDS011;11785;49.500;8.288;2022-11-21T02:35:20;3.92;;;1.40;;
23232;SDS011;11785;49.500;8.288;2022-11-21T02:37:46;4.47;;;1.27;;
23232;SDS011;11785;49.500;8.288;2022-11-21T02:40:18;8.70;;;1.55;;
23232;SDS011;11785;49.500;8.288;2022-11-21T02:45:32;6.47;;;1.83;;
23232;SDS011;11785;49.500;8.288;2022-11-21T02:48:02;4.63;;;1.35;;
23232;SDS011;11785;49.500;8.288;2022-11-21T02:50:29;5.97;;;1.40;;
23232;SDS011;11785;49.500;8.288;2022-11-21T02:52:56;4.05;;;1.40;;
23232;SDS011;11785;49.500;8.288;2022-11-21T02:55:23;3.88;;;0.93;;
23232;SDS011;11785;49.500;8.288;2022-11-21T02:57:49;5.47;;;1.02;;
23232;SDS011;11785;49.500;8.288;2022-11-21T03:00:15;5.97;;;1.27;;
23232;SDS011;11785;49.500;8.288;2022-11-21T03:02:41;6.93;;;1.35;;
23232;SDS011;11785;49.500;8.288;2022-11-21T03:05:08;1.95;;;0.90;;
23232;SDS011;11785;49.500;8.288;2022-11-21T03:07:36;2.65;;;0.90;;
23232;SDS011;11785;49.500;8.288;2022-11-21T03:10:02;2.42;;;0.88;;
23232;SDS011;11785;49.500;8.288;2022-11-21T03:12:28;6.22;;;1.10;;
23232;SDS011;11785;49.500;8.288;2022-11-21T03:14:53;4.80;;;1.02;;
23232;SDS011;11785;49.500;8.288;2022-11-21T03:17:19;3.80;;;1.15;;
23232;SDS011;11785;49.500;8.288;2022-11-21T03:19:45;8.20;;;1.40;;
23232;SDS011;11785;49.500;8.288;2022-11-21T03:22:11;5.25;;;1.05;;
23232;SDS011;11785;49.500;8.288;2022-11-21T03:24:37;3.85;;;1.17;;
23232;SDS011;11785;49.500;8.288;2022-11-21T03:27:02;5.20;;;1.25;;
23232;SDS011;11785;49.500;8.288;2022-11-21T03:29:28;5.28;;;0.80;;
23232;SDS011;11785;49.500;8.288;2022-11-21T03:31:53;2.75;;;1.10;;
23232;SDS011;11785;49.500;8.288;2022-11-21T03:34:19;3.75;;;1.02;;
23232;SDS011;11785;49.500;8.288;2022-11-21T03:36:45;3.08;;;0.80;;
23232;SDS011;11785;49.500;8.288;2022-11-21T03:39:10;3.72;;;0.98;;
23232;SDS011;11785;49.500;8.288;2022-11-21T03:41:36;3.88;;;1.00;;
23232;SDS011;11785;49.500;8.288;2022-11-21T03:44:03;2.80;;;0.85;;
23232;SDS011;11785;49.500;8.288;2022-11-21T03:46:31;3.70;;;0.80;;
23232;SDS011;11785;49.500;8.288;2022-11-21T03:48:58;1.70;;;1.00;;
23232;SDS011;11785;49.500;8.288;2022-11-21T03:51:23;1.25;;;0.50;;
23232;SDS011;11785;49.500;8.288;2022-11-21T03:53:49;2.80;;;0.95;;
23232;SDS011;11785;49.500;8.288;2022-11-21T03:56:15;1.85;;;0.90;;
23232;SDS011;11785;49.500;8.288;2022-11-21T03:58:41;5.25;;;1.10;;
23232;SDS011;11785;49.500;8.288;2022-11-21T04:01:07;1.80;;;0.80;;
23232;SDS011;11785;49.500;8.288;2022-11-21T04:03:33;1.58;;;0.75;;
23232;SDS011;11785;49.500;8.288;2022-11-21T04:05:58;1.83;;;0.82;;
23232;SDS011;11785;49.500;8.288;2022-11-21T04:08:24;2.78;;;0.68;;
23232;SDS011;11785;49.500;8.288;2022-11-21T04:10:50;2.17;;;0.70;;
23232;SDS011;11785;49.500;8.288;2022-11-21T04:13:17;2.42;;;0.73;;
23232;SDS011;11785;49.500;8.288;2022-11-21T04:15:43;1.42;;;0.57;;
23232;SDS011;11785;49.500;8.288;2022-11-21T04:18:09;2.22;;;0.70;;
23232;SDS011;11785;49.500;8.288;2022-11-21T04:20:36;2.28;;;0.90;;
23232;SDS011;11785;49.500;8.288;2022-11-21T04:23:03;2.42;;;0.68;;
23232;SDS011;11785;49.500;8.288;2022-11-21T04:25:29;4.13;;;0.80;;
23232;SDS011;11785;49.500;8.288;2022-11-21T04:27:55;2.22;;;0.90;;
23232;SDS011;11785;49.500;8.288;2022-11-21T04:30:21;4.75;;;0.77;;
23232;SDS011;11785;49.500;8.288;2022-11-21T04:32:49;2.35;;;0.60;;
23232;SDS011;11785;49.500;8.288;2022-11-21T04:35:15;3.95;;;0.65;;
23232;SDS011;11785;49.500;8.288;2022-11-21T04:37:41;2.70;;;0.68;;
23232;SDS011;11785;49.500;8.288;2022-11-21T04:40:06;2.20;;;0.57;;
23232;SDS011;11785;49.500;8.288;2022-11-21T04:42:32;1.25;;;0.77;;
23232;SDS011;11785;49.500;8.288;2022-11-21T04:44:58;2.15;;;0.60;;
23232;SDS011;11785;49.500;8.288;2022-11-21T04:47:23;2.75;;;0.70;;
23232;SDS011;11785;49.500;8.288;2022-11-21T04:49:49;2.35;;;0.70;;
23232;SDS011;11785;49.500;8.288;2022-11-21T04:52:14;5.78;;;0.90;;
23232;SDS011;11785;49.500;8.288;2022-11-21T04:54:40;5.68;;;0.80;;
23232;SDS011;11785;49.500;8.288;2022-11-21T04:57:06;2.38;;;0.82;;
23232;SDS011;11785;49.500;8.288;2022-11-21T04:59:31;1.10;;;0.80;;
23232;SDS011;11785;49.500;8.288;2022-11-21T05:01:57;3.58;;;0.90;;
23232;SDS011;11785;49.500;8.288;2022-11-21T05:04:22;2.13;;;0.93;;
23232;SDS011;11785;49.500;8.288;2022-11-21T05:06:48;2.40;;;1.08;;
23232;SDS011;11785;49.500;8.288;2022-11-21T05:09:14;1.88;;;1.08;;
23232;SDS011;11785;49.500;8.288;2022-11-21T05:11:39;2.63;;;1.00;;
23232;SDS011;11785;49.500;8.288;2022-11-21T05:14:23;3.10;;;1.10;;
23232;SDS011;11785;49.500;8.288;2022-11-21T05:16:50;2.80;;;0.90;;
23232;SDS011;11785;49.500;8.288;2022-11-21T05:19:17;1.58;;;0.73;;
23232;SDS011;11785;49.500;8.288;2022-11-21T05:21:42;1.42;;;0.82;;
23232;SDS011;11785;49.500;8.288;2022-11-21T05:24:08;3.55;;;1.67;;
23232;SDS011;11785;49.500;8.288;2022-11-21T05:26:34;6.15;;;0.95;;
23232;SDS011;11785;49.500;8.288;2022-11-21T05:29:00;7.30;;;1.45;;
23232;SDS011;11785;49.500;8.288;2022-11-21T05:31:25;5.28;;;1.02;;
23232;SDS011;11785;49.500;8.288;2022-11-21T05:33:51;6.10;;;1.13;;
23232;SDS011;11785;49.500;8.288;2022-11-21T05:36:16;3.70;;;1.30;;
23232;SDS011;11785;49.500;8.288;2022-11-21T05:38:42;5.03;;;1.20;;
23232;SDS011;11785;49.500;8.288;2022-11-21T05:41:08;1.52;;;0.70;;
23232;SDS011;11785;49.500;8.288;2022-11-21T05:43:34;1.92;;;1.17;;
23232;SDS011;11785;49.500;8.288;2022-11-21T05:46:15;2.45;;;0.98;;
23232;SDS011;11785;49.500;8.288;2022-11-21T05:48:43;3.00;;;1.10;;
23232;SDS011;11785;49.500;8.288;2022-11-21T05:51:09;5.28;;;1.55;;
23232;SDS011;11785;49.500;8.288;2022-11-21T05:53:35;3.70;;;1.13;;
23232;SDS011;11785;49.500;8.288;2022-11-21T05:56:05;9.23;;;1.25;;
23232;SDS011;11785;49.500;8.288;2022-11-21T05:58:32;4.68;;;1.52;;
23232;SDS011;11785;49.500;8.288;2022-11-21T06:00:58;2.72;;;1.00;;
23232;SDS011;11785;49.500;8.288;2022-11-21T06:03:25;6.45;;;1.25;;
23232;SDS011;11785;49.500;8.288;2022-11-21T06:05:57;3.95;;;1.17;;
23232;SDS011;11785;49.500;8.288;2022-11-21T06:08:22;5.78;;;1.10;;
23232;SDS011;11785;49.500;8.288;2022-11-21T06:10:48;4.03;;;1.23;;
23232;SDS011;11785;49.500;8.288;2022-11-21T06:13:13;4.55;;;1.20;;
23232;SDS011;11785;49.500;8.288;2022-11-21T06:15:48;5.55;;;1.20;;
23232;SDS011;11785;49.500;8.288;2022-11-21T06:18:17;5.50;;;1.92;;
23232;SDS011;11785;49.500;8.288;2022-11-21T06:20:44;4.55;;;1.35;;
23232;SDS011;11785;49.500;8.288;2022-11-21T06:23:09;2.83;;;1.20;;
23232;SDS011;11785;49.500;8.288;2022-11-21T06:25:36;4.30;;;1.17;;
23232;SDS011;11785;49.500;8.288;2022-11-21T06:28:02;4.63;;;1.42;;
23232;SDS011;11785;49.500;8.288;2022-11-21T06:30:27;3.80;;;1.30;;
23232;SDS011;11785;49.500;8.288;2022-11-21T06:32:53;5.82;;;1.40;;
23232;SDS011;11785;49.500;8.288;2022-11-21T06:35:19;6.45;;;1.50;;
23232;SDS011;11785;49.500;8.288;2022-11-21T06:37:44;1.98;;;1.15;;
23232;SDS011;11785;49.500;8.288;2022-11-21T06:40:10;6.07;;;1.30;;
23232;SDS011;11785;49.500;8.288;2022-11-21T06:42:36;3.80;;;1.17;;
23232;SDS011;11785;49.500;8.288;2022-11-21T06:45:03;4.28;;;1.45;;
23232;SDS011;11785;49.500;8.288;2022-11-21T06:47:33;5.45;;;1.40;;
23232;SDS011;11785;49.500;8.288;2022-11-21T06:49:58;6.68;;;1.40;;
23232;SDS011;11785;49.500;8.288;2022-11-21T06:52:25;7.15;;;1.40;;
23232;SDS011;11785;49.500;8.288;2022-11-21T06:54:50;5.28;;;1.58;;
23232;SDS011;11785;49.500;8.288;2022-11-21T06:57:16;5.10;;;1.45;;
23232;SDS011;11785;49.500;8.288;2022-11-21T06:59:42;3.70;;;1.38;;
23232;SDS011;11785;49.500;8.288;2022-11-21T07:02:11;5.22;;;1.42;;
23232;SDS011;11785;49.500;8.288;2022-11-21T07:04:37;4.78;;;1.40;;
23232;SDS011;11785;49.500;8.288;2022-11-21T07:07:02;5.43;;;1.55;;
23232;SDS011;11785;49.500;8.288;2022-11-21T07:09:28;6.45;;;2.00;;
23232;SDS011;11785;49.500;8.288;2022-11-21T07:11:54;6.47;;;1.83;;
23232;SDS011;11785;49.500;8.288;2022-11-21T07:14:19;9.13;;;1.80;;
23232;SDS011;11785;49.500;8.288;2022-11-21T07:16:45;7.88;;;1.90;;
23232;SDS011;11785;49.500;8.288;2022-11-21T07:19:10;6.88;;;1.50;;
23232;SDS011;11785;49.500;8.288;2022-11-21T07:21:36;2.80;;;1.27;;
23232;SDS011;11785;49.500;8.288;2022-11-21T07:24:02;4.32;;;1.30;;
23232;SDS011;11785;49.500;8.288;2022-11-21T07:26:28;6.45;;;1.73;;
23232;SDS011;11785;49.500;8.288;2022-11-21T07:28:53;4.72;;;1.50;;
23232;SDS011;11785;49.500;8.288;2022-11-21T07:31:19;5.85;;;1.58;;
23232;SDS011;11785;49.500;8.288;2022-11-21T07:33:44;5.03;;;1.42;;
23232;SDS011;11785;49.500;8.288;2022-11-21T07:36:11;4.85;;;1.40;;
23232;SDS011;11785;49.500;8.288;2022-11-21T07:38:37;14.60;;;1.70;;
23232;SDS011;11785;49.500;8.288;2022-11-21T07:41:02;3.95;;;1.33;;
23232;SDS011;11785;49.500;8.288;2022-11-21T07:43:28;6.78;;;1.65;;
23232;SDS011;11785;49.500;8.288;2022-11-21T07:45:54;5.80;;;1.60;;
23232;SDS011;11785;49.500;8.288;2022-11-21T07:48:20;8.98;;;1.90;;
23232;SDS011;11785;49.500;8.288;2022-11-21T07:50:45;8.90;;;1.50;;
23232;SDS011;11785;49.500;8.288;2022-11-21T07:53:11;5.70;;;1.55;;
23232;SDS011;11785;49.500;8.288;2022-11-21T07:55:37;3.97;;;1.75;;
23232;SDS011;11785;49.500;8.288;2022-11-21T07:58:04;8.68;;;2.10;;
23232;SDS011;11785;49.500;8.288;2022-11-21T08:00:31;7.82;;;1.80;;
23232;SDS011;11785;49.500;8.288;2022-11-21T08:02:59;5.95;;;1.60;;
23232;SDS011;11785;49.500;8.288;2022-11-21T08:05:24;3.15;;;1.17;;
23232;SDS011;11785;49.500;8.288;2022-11-21T08:07:50;4.75;;;1.20;;
23232;SDS011;11785;49.500;8.288;2022-11-21T08:10:16;6.63;;;1.35;;
23232;SDS011;11785;49.500;8.288;2022-11-21T08:12:45;3.53;;;1.10;;
23232;SDS011;11785;49.500;8.288;2022-11-21T08:15:11;3.75;;;1.20;;
23232;SDS011;11785;49.500;8.288;2022-11-21T08:17:37;6.75;;;1.38;;
23232;SDS011;11785;49.500;8.288;2022-11-21T08:20:03;3.58;;;1.17;;
23232;SDS011;11785;49.500;8.288;2022-11-21T08:22:36;6.43;;;1.80;;
23232;SDS011;11785;49.500;8.288;2022-11-21T08:25:03;4.50;;;1.55;;
23232;SDS011;11785;49.500;8.288;2022-11-21T08:27:29;2.35;;;0.85;;
23232;SDS011;11785;49.500;8.288;2022-11-21T08:29:55;5.35;;;1.60;;
23232;SDS011;11785;49.500;8.288;2022-11-21T08:32:20;5.43;;;1.60;;
23232;SDS011;11785;49.500;8.288;2022-11-21T08:34:46;5.50;;;1.00;;
23232;SDS011;11785;49.500;8.288;2022-11-21T08:37:11;3.22;;;1.27;;
23232;SDS011;11785;49.500;8.288;2022-11-21T08:39:37;4.82;;;1.17;;
23232;SDS011;11785;49.500;8.288;2022-11-21T08:42:02;4.95;;;1.20;;
23232;SDS011;11785;49.500;8.288;2022-11-21T08:44:28;6.40;;;1.50;;
23232;SDS011;11785;49.500;8.288;2022-11-21T08:46:55;2.65;;;0.85;;
23232;SDS011;11785;49.500;8.288;2022-11-21T08:49:21;3.50;;;1.40;;
23232;SDS011;11785;49.500;8.288;2022-11-21T08:51:47;5.18;;;1.40;;
23232;SDS011;11785;49.500;8.288;2022-11-21T08:54:19;3.30;;;1.08;;
23232;SDS011;11785;49.500;8.288;2022-11-21T08:56:46;4.53;;;1.20;;
23232;SDS011;11785;49.500;8.288;2022-11-21T08:59:12;5.35;;;1.52;;
23232;SDS011;11785;49.500;8.288;2022-11-21T09:01:39;1.92;;;1.00;;
23232;SDS011;11785;49.500;8.288;2022-11-21T09:04:06;3.33;;;1.63;;
23232;SDS011;11785;49.500;8.288;2022-11-21T09:06:32;7.90;;;1.40;;
23232;SDS011;11785;49.500;8.288;2022-11-21T09:08:58;2.75;;;1.33;;
23232;SDS011;11785;49.500;8.288;2022-11-21T09:11:23;6.35;;;1.33;;
23232;SDS011;11785;49.500;8.288;2022-11-21T09:13:52;3.92;;;1.30;;
23232;SDS011;11785;49.500;8.288;2022-11-21T09:16:37;2.53;;;1.25;;
23232;SDS011;11785;49.500;8.288;2022-11-21T09:19:21;3.75;;;1.10;;
23232;SDS011;11785;49.500;8.288;2022-11-21T09:21:50;3.00;;;1.08;;
23232;SDS011;11785;49.500;8.288;2022-11-21T09:24:16;6.75;;;1.30;;
23232;SDS011;11785;49.500;8.288;2022-11-21T09:26:42;5.22;;;1.33;;
23232;SDS011;11785;49.500;8.288;2022-11-21T09:29:08;3.55;;;1.20;;
23232;SDS011;11785;49.500;8.288;2022-11-21T09:31:35;5.68;;;1.25;;
23232;SDS011;11785;49.500;8.288;2022-11-21T09:34:04;4.25;;;1.17;;
23232;SDS011;11785;49.500;8.288;2022-11-21T09:36:29;4.32;;;1.13;;
23232;SDS011;11785;49.500;8.288;2022-11-21T09:38:55;2.08;;;1.10;;
23232;SDS011;11785;49.500;8.288;2022-11-21T09:46:59;4.22;;;1.52;;
23232;SDS011;11785;49.500;8.288;2022-11-21T09:50:23;7.28;;;1.60;;
23232;SDS011;11785;49.500;8.288;2022-11-21T09:58:42;7.78;;;1.73;;
23232;SDS011;11785;49.500;8.288;2022-11-21T10:01:11;7.95;;;1.40;;
23232;SDS011;11785;49.500;8.288;2022-11-21T10:03:41;8.25;;;1.20;;
23232;SDS011;11785;49.500;8.288;2022-11-21T10:06:17;4.63;;;1.10;;
23232;SDS011;11785;49.500;8.288;2022-11-21T10:08:50;5.18;;;1.40;;
23232;SDS011;11785;49.500;8.288;2022-11-21T10:11:25;5.68;;;1.30;;
23232;SDS011;11785;49.500;8.288;2022-11-21T10:19:48;8.55;;;1.70;;
23232;SDS011;11785;49.500;8.288;2022-11-21T10:24:55;7.07;;;1.25;;
23232;SDS011;11785;49.500;8.288;2022-11-21T10:27:36;7.25;;;1.30;;
23232;SDS011;11785;49.500;8.288;2022-11-21T10:30:22;7.15;;;1.70;;
23232;SDS011;11785;49.500;8.288;2022-11-21T10:32:49;8.45;;;1.58;;
23232;SDS011;11785;49.500;8.288;2022-11-21T10:35:40;4.13;;;1.25;;
23232;SDS011;11785;49.500;8.288;2022-11-21T10:40:59;4.15;;;1.00;;
23232;SDS011;11785;49.500;8.288;2022-11-21T10:43:42;7.90;;;1.70;;
23232;SDS011;11785;49.500;8.288;2022-11-21T10:46:34;4.70;;;1.00;;
23232;SDS011;11785;49.500;8.288;2022-11-21T10:49:00;5.28;;;1.40;;
23232;SDS011;11785;49.500;8.288;2022-11-21T10:54:15;4.22;;;1.25;;
23232;SDS011;11785;49.500;8.288;2022-11-21T10:59:25;5.95;;;1.30;;
23232;SDS011;11785;49.500;8.288;2022-11-21T11:02:09;5.90;;;1.42;;
23232;SDS011;11785;49.500;8.288;2022-11-21T11:04:47;7.13;;;1.50;;
23232;SDS011;11785;49.500;8.288;2022-11-21T11:09:46;6.93;;;1.40;;
23232;SDS011;11785;49.500;8.288;2022-11-21T11:17:50;4.35;;;1.25;;
23232;SDS011;11785;49.500;8.288;2022-11-21T11:20:37;3.25;;;1.10;;
23232;SDS011;11785;49.500;8.288;2022-11-21T11:23:14;3.80;;;1.10;;
23232;SDS011;11785;49.500;8.288;2022-11-21T11:25:55;4.45;;;1.25;;
23232;SDS011;11785;49.500;8.288;2022-11-21T11:28:22;6.07;;;1.13;;
23232;SDS011;11785;49.500;8.288;2022-11-21T11:30:49;7.05;;;1.50;;
23232;SDS011;11785;49.500;8.288;2022-11-21T11:33:30;4.80;;;1.27;;
23232;SDS011;11785;49.500;8.288;2022-11-21T11:38:56;5.32;;;1.50;;
23232;SDS011;11785;49.500;8.288;2022-11-21T11:41:27;6.30;;;1.23;;
23232;SDS011;11785;49.500;8.288;2022-11-21T11:47:45;3.75;;;1.40;;
23232;SDS011;11785;49.500;8.288;2022-11-21T11:50:17;4.97;;;1.40;;
23232;SDS011;11785;49.500;8.288;2022-11-21T11:58:49;8.18;;;1.60;;
23232;SDS011;11785;49.500;8.288;2022-11-21T12:04:03;5.80;;;1.48;;
23232;SDS011;11785;49.500;8.288;2022-11-21T12:06:43;10.68;;;2.03;;
23232;SDS011;11785;49.500;8.288;2022-11-21T12:09:19;10.55;;;1.70;;
23232;SDS011;11785;49.500;8.288;2022-11-21T12:23:13;4.05;;;1.50;;
23232;SDS011;11785;49.500;8.288;2022-11-21T12:25:41;3.40;;;1.10;;
23232;SDS011;11785;49.500;8.288;2022-11-21T12:28:39;5.25;;;1.50;;
23232;SDS011;11785;49.500;8.288;2022-11-21T12:31:36;5.47;;;1.48;;
23232;SDS011;11785;49.500;8.288;2022-11-21T12:37:08;6.35;;;1.40;;
23232;SDS011;11785;49.500;8.288;2022-11-21T12:39:58;4.53;;;1.23;;
23232;SDS011;11785;49.500;8.288;2022-11-21T12:45:25;4.03;;;1.40;;
23232;SDS011;11785;49.500;8.288;2022-11-21T12:53:57;3.13;;;1.25;;
23232;SDS011;11785;49.500;8.288;2022-11-21T13:05:29;5.75;;;2.00;;
23232;SDS011;11785;49.500;8.288;2022-11-21T13:08:03;4.88;;;1.60;;
23232;SDS011;11785;49.500;8.288;2022-11-21T13:11:32;5.93;;;1.50;;
23232;SDS011;11785;49.500;8.288;2022-11-21T13:13:54;6.03;;;1.52;;
23232;SDS011;11785;49.500;8.288;2022-11-21T13:16:25;7.18;;;1.63;;
23232;SDS011;11785;49.500;8.288;2022-11-21T13:19:10;7.78;;;3.92;;
23232;SDS011;11785;49.500;8.288;2022-11-21T13:21:47;6.70;;;2.38;;
23232;SDS011;11785;49.500;8.288;2022-11-21T13:27:25;8.27;;;3.20;;
23232;SDS011;11785;49.500;8.288;2022-11-21T13:32:50;6.03;;;1.92;;
23232;SDS011;11785;49.500;8.288;2022-11-21T13:45:40;5.80;;;1.80;;
23232;SDS011;11785;49.500;8.288;2022-11-21T13:56:31;7.85;;;2.40;;
23232;SDS011;11785;49.500;8.288;2022-11-21T14:07:44;5.30;;;1.92;;
23232;SDS011;11785;49.500;8.288;2022-11-21T14:10:30;5.50;;;1.20;;
23232;SDS011;11785;49.500;8.288;2022-11-21T14:12:57;9.20;;;1.92;;
23232;SDS011;11785;49.500;8.288;2022-11-21T14:15:47;12.93;;;4.90;;
23232;SDS011;11785;49.500;8.288;2022-11-21T14:18:21;6.93;;;2.35;;
23232;SDS011;11785;49.500;8.288;2022-11-21T14:20:59;14.85;;;4.40;;
23232;SDS011;11785;49.500;8.288;2022-11-21T14:23:26;10.93;;;2.92;;
23232;SDS011;11785;49.500;8.288;2022-11-21T14:25:55;5.45;;;1.85;;
23232;SDS011;11785;49.500;8.288;2022-11-21T14:28:24;9.82;;;1.88;;
23232;SDS011;11785;49.500;8.288;2022-11-21T14:30:58;13.27;;;2.00;;
23232;SDS011;11785;49.500;8.288;2022-11-21T14:33:29;10.75;;;3.33;;
23232;SDS011;11785;49.500;8.288;2022-11-21T14:38:44;7.30;;;2.42;;
23232;SDS011;11785;49.500;8.288;2022-11-21T14:41:17;9.07;;;2.45;;
23232;SDS011;11785;49.500;8.288;2022-11-21T14:46:25;8.27;;;2.35;;
23232;SDS011;11785;49.500;8.288;2022-11-21T14:48:53;10.27;;;2.25;;
23232;SDS011;11785;49.500;8.288;2022-11-21T14:51:21;14.00;;;3.13;;
23232;SDS011;11785;49.500;8.288;2022-11-21T14:53:48;13.80;;;2.50;;
23232;SDS011;11785;49.500;8.288;2022-11-21T14:58:46;11.70;;;2.33;;
23232;SDS011;11785;49.500;8.288;2022-11-21T15:01:19;10.80;;;2.33;;
23232;SDS011;11785;49.500;8.288;2022-11-21T15:03:59;12.52;;;2.55;;
23232;SDS011;11785;49.500;8.288;2022-11-21T15:06:27;14.50;;;2.35;;
23232;SDS011;11785;49.500;8.288;2022-11-21T15:08:57;10.50;;;2.92;;
23232;SDS011;11785;49.500;8.288;2022-11-21T15:11:31;10.23;;;2.17;;
23232;SDS011;11785;49.500;8.288;2022-11-21T15:14:05;8.07;;;1.83;;
23232;SDS011;11785;49.500;8.288;2022-11-21T15:16:41;11.32;;;2.88;;
23232;SDS011;11785;49.500;8.288;2022-11-21T15:19:09;11.95;;;2.90;;
23232;SDS011;11785;49.500;8.288;2022-11-21T15:21:34;7.55;;;1.92;;
23232;SDS011;11785;49.500;8.288;2022-11-21T15:24:14;10.27;;;2.70;;
23232;SDS011;11785;49.500;8.288;2022-11-21T15:26:53;14.05;;;2.55;;
23232;SDS011;11785;49.500;8.288;2022-11-21T15:29:19;13.00;;;2.22;;
23232;SDS011;11785;49.500;8.288;2022-11-21T15:31:49;9.43;;;1.92;;
23232;SDS011;11785;49.500;8.288;2022-11-21T15:34:30;11.82;;;2.45;;
23232;SDS011;11785;49.500;8.288;2022-11-21T15:37:03;14.45;;;2.13;;
23232;SDS011;11785;49.500;8.288;2022-11-21T15:39:32;11.90;;;2.65;;
23232;SDS011;11785;49.500;8.288;2022-11-21T15:44:57;11.70;;;2.28;;
23232;SDS011;11785;49.500;8.288;2022-11-21T15:47:24;7.72;;;2.38;;
23232;SDS011;11785;49.500;8.288;2022-11-21T15:49:50;10.52;;;2.30;;
23232;SDS011;11785;49.500;8.288;2022-11-21T15:52:15;12.00;;;3.53;;
23232;SDS011;11785;49.500;8.288;2022-11-21T15:54:41;11.07;;;3.00;;
23232;SDS011;11785;49.500;8.288;2022-11-21T15:57:07;10.32;;;2.80;;
23232;SDS011;11785;49.500;8.288;2022-11-21T15:59:33;10.57;;;2.78;;
23232;SDS011;11785;49.500;8.288;2022-11-21T16:01:59;11.82;;;2.55;;
23232;SDS011;11785;49.500;8.288;2022-11-21T16:04:25;12.27;;;2.65;;
23232;SDS011;11785;49.500;8.288;2022-11-21T16:06:51;9.50;;;2.83;;
23232;SDS011;11785;49.500;8.288;2022-11-21T16:09:20;28.90;;;12.70;;
23232;SDS011;11785;49.500;8.288;2022-11-21T16:11:46;117.45;;;48.85;;
23232;SDS011;11785;49.500;8.288;2022-11-21T16:14:12;89.20;;;37.28;;
23232;SDS011;11785;49.500;8.288;2022-11-21T16:16:40;77.25;;;28.58;;
23232;SDS011;11785;49.500;8.288;2022-11-21T16:19:07;38.42;;;17.00;;
23232;SDS011;11785;49.500;8.288;2022-11-21T16:21:35;26.95;;;12.50;;
23232;SDS011;11785;49.500;8.288;2022-11-21T16:24:00;15.98;;;7.65;;
23232;SDS011;11785;49.500;8.288;2022-11-21T16:26:26;19.80;;;6.03;;
23232;SDS011;11785;49.500;8.288;2022-11-21T16:28:56;15.27;;;4.07;;
23232;SDS011;11785;49.500;8.288;2022-11-21T16:31:28;19.75;;;4.07;;
23232;SDS011;11785;49.500;8.288;2022-11-21T16:33:55;20.85;;;6.18;;
23232;SDS011;11785;49.500;8.288;2022-11-21T16:36:24;13.57;;;6.75;;
23232;SDS011;11785;49.500;8.288;2022-11-21T16:38:51;13.20;;;6.22;;
23232;SDS011;11785;49.500;8.288;2022-11-21T16:41:17;16.25;;;6.93;;
23232;SDS011;11785;49.500;8.288;2022-11-21T16:43:50;12.48;;;5.53;;
23232;SDS011;11785;49.500;8.288;2022-11-21T16:46:18;13.25;;;4.47;;
23232;SDS011;11785;49.500;8.288;2022-11-21T16:48:44;11.40;;;3.35;;
23232;SDS011;11785;49.500;8.288;2022-11-21T16:51:11;15.60;;;4.47;;
23232;SDS011;11785;49.500;8.288;2022-11-21T16:53:39;15.10;;;4.80;;
23232;SDS011;11785;49.500;8.288;2022-11-21T16:56:05;13.30;;;4.25;;
23232;SDS011;11785;49.500;8.288;2022-11-21T16:58:31;15.55;;;5.22;;
23232;SDS011;11785;49.500;8.288;2022-11-21T17:00:57;18.77;;;4.10;;
23232;SDS011;11785;49.500;8.288;2022-11-21T17:03:22;15.57;;;3.97;;
23232;SDS011;11785;49.500;8.288;2022-11-21T17:05:57;9.07;;;3.13;;
23232;SDS011;11785;49.500;8.288;2022-11-21T17:08:23;18.38;;;3.28;;